sensor_id;sensor_type;location;lat;lon;timestamp;temperature;humidity
65040;HTU21D;51606;45.000;38.612;2023-05-10T04:18:05;10.07;82.32
65040;HTU21D;51606;45.000;38.612;2023-05-10T04:20:32;10.11;82.30
65040;HTU21D;51606;45.000;38.612;2023-05-10T04:22:59;10.13;82.30
65040;HTU21D;51606;45.000;38.612;2023-05-10T04:25:25;10.15;82.25
65040;HTU21D;51606;45.000;38.612;2023-05-10T04:27:51;10.16;82.24
65040;HTU21D;51606;45.000;38.612;2023-05-10T04:30:18;10.20;82.23
65040;HTU21D;51606;45.000;38.612;2023-05-10T04:32:44;10.22;82.21
65040;HTU21D;51606;45.000;38.612;2023-05-10T04:35:11;10.23;82.22
65040;HTU21D;51606;45.000;38.612;2023-05-10T04:37:38;10.24;82.23
65040;HTU21D;51606;45.000;38.612;2023-05-10T04:40:05;10.24;82.22
65040;HTU21D;51606;45.000;38.612;2023-05-10T04:42:31;10.26;82.17
65040;HTU21D;51606;45.000;38.612;2023-05-10T04:44:58;10.27;82.17
65040;HTU21D;51606;45.000;38.612;2023-05-10T04:47:24;10.29;82.17
65040;HTU21D;51606;45.000;38.612;2023-05-10T04:49:51;10.31;82.15
65040;HTU21D;51606;45.000;38.612;2023-05-10T04:52:17;10.33;82.12
65040;HTU21D;51606;45.000;38.612;2023-05-10T04:54:44;10.37;82.09
65040;HTU21D;51606;45.000;38.612;2023-05-10T04:57:10;10.37;82.06
65040;HTU21D;51606;45.000;38.612;2023-05-10T04:59:36;10.36;82.10
65040;HTU21D;51606;45.000;38.612;2023-05-10T05:02:03;10.37;82.12
65040;HTU21D;51606;45.000;38.612;2023-05-10T05:04:31;10.34;82.12
65040;HTU21D;51606;45.000;38.612;2023-05-10T05:06:58;10.33;82.17
65040;HTU21D;51606;45.000;38.612;2023-05-10T05:09:25;10.34;82.18
65040;HTU21D;51606;45.000;38.612;2023-05-10T05:11:53;10.36;82.14
65040;HTU21D;51606;45.000;38.612;2023-05-10T05:14:19;10.39;82.10
65040;HTU21D;51606;45.000;38.612;2023-05-10T05:16:52;10.40;82.05
65040;HTU21D;51606;45.000;38.612;2023-05-10T05:19:18;10.38;82.04
65040;HTU21D;51606;45.000;38.612;2023-05-10T05:21:45;10.37;82.07
65040;HTU21D;51606;45.000;38.612;2023-05-10T05:24:11;10.37;82.13
65040;HTU21D;51606;45.000;38.612;2023-05-10T05:26:38;10.42;82.09
65040;HTU21D;51606;45.000;38.612;2023-05-10T05:29:05;10.49;82.01
65040;HTU21D;51606;45.000;38.612;2023-05-10T05:31:31;10.62;81.93
65040;HTU21D;51606;45.000;38.612;2023-05-10T05:33:57;10.83;81.72
65040;HTU21D;51606;45.000;38.612;2023-05-10T05:36:24;11.09;81.43
65040;HTU21D;51606;45.000;38.612;2023-05-10T05:38:50;11.29;81.02
65040;HTU21D;51606;45.000;38.612;2023-05-10T05:41:17;11.40;80.83
65040;HTU21D;51606;45.000;38.612;2023-05-10T05:43:43;11.49;80.80
65040;HTU21D;51606;45.000;38.612;2023-05-10T05:46:10;11.67;80.71
65040;HTU21D;51606;45.000;38.612;2023-05-10T05:48:36;11.99;80.49
65040;HTU21D;51606;45.000;38.612;2023-05-10T05:51:02;12.34;80.05
65040;HTU21D;51606;45.000;38.612;2023-05-10T05:53:29;12.64;79.66
65040;HTU21D;51606;45.000;38.612;2023-05-10T05:55:57;12.95;79.42
65040;HTU21D;51606;45.000;38.612;2023-05-10T05:58:24;13.21;79.13
65040;HTU21D;51606;45.000;38.612;2023-05-10T06:00:51;13.36;79.14
65040;HTU21D;51606;45.000;38.612;2023-05-10T06:03:18;13.45;79.24
65040;HTU21D;51606;45.000;38.612;2023-05-10T06:05:48;13.59;79.32
65040;HTU21D;51606;45.000;38.612;2023-05-10T06:08:14;13.77;79.27
65040;HTU21D;51606;45.000;38.612;2023-05-10T06:10:41;14.04;79.07
65040;HTU21D;51606;45.000;38.612;2023-05-10T06:13:07;14.21;78.88
65040;HTU21D;51606;45.000;38.612;2023-05-10T06:15:34;14.18;78.91
65040;HTU21D;51606;45.000;38.612;2023-05-10T06:18:00;14.05;79.27
65040;HTU21D;51606;45.000;38.612;2023-05-10T06:20:27;13.94;79.58
65040;HTU21D;51606;45.000;38.612;2023-05-10T06:22:53;13.77;79.87
65040;HTU21D;51606;45.000;38.612;2023-05-10T06:25:20;13.63;80.24
65040;HTU21D;51606;45.000;38.612;2023-05-10T06:27:49;13.55;80.35
65040;HTU21D;51606;45.000;38.612;2023-05-10T06:30:15;13.51;80.40
65040;HTU21D;51606;45.000;38.612;2023-05-10T06:32:42;13.44;80.40
65040;HTU21D;51606;45.000;38.612;2023-05-10T06:35:10;13.44;80.49
65040;HTU21D;51606;45.000;38.612;2023-05-10T06:37:36;13.50;80.30
65040;HTU21D;51606;45.000;38.612;2023-05-10T06:40:03;13.48;80.10
65040;HTU21D;51606;45.000;38.612;2023-05-10T06:42:30;13.40;80.17
65040;HTU21D;51606;45.000;38.612;2023-05-10T06:44:56;13.31;80.28
65040;HTU21D;51606;45.000;38.612;2023-05-10T06:47:23;13.18;80.40
65040;HTU21D;51606;45.000;38.612;2023-05-10T06:49:49;13.06;80.49
65040;HTU21D;51606;45.000;38.612;2023-05-10T06:52:16;12.96;80.59
65040;HTU21D;51606;45.000;38.612;2023-05-10T06:54:42;12.87;80.69
65040;HTU21D;51606;45.000;38.612;2023-05-10T06:57:09;12.77;80.69
65040;HTU21D;51606;45.000;38.612;2023-05-10T06:59:35;12.65;80.79
65040;HTU21D;51606;45.000;38.612;2023-05-10T07:02:02;12.57;80.81
65040;HTU21D;51606;45.000;38.612;2023-05-10T07:04:29;12.52;80.84
65040;HTU21D;51606;45.000;38.612;2023-05-10T07:07:12;12.47;80.80
65040;HTU21D;51606;45.000;38.612;2023-05-10T07:10:07;12.49;80.70
65040;HTU21D;51606;45.000;38.612;2023-05-10T07:12:34;12.62;80.52
65040;HTU21D;51606;45.000;38.612;2023-05-10T07:15:05;12.91;80.14
65040;HTU21D;51606;45.000;38.612;2023-05-10T07:17:31;13.40;79.47
65040;HTU21D;51606;45.000;38.612;2023-05-10T07:19:59;14.23;78.62
65040;HTU21D;51606;45.000;38.612;2023-05-10T07:22:26;15.18;77.30
65040;HTU21D;51606;45.000;38.612;2023-05-10T07:24:53;15.98;76.50
65040;HTU21D;51606;45.000;38.612;2023-05-10T07:27:19;16.57;75.97
65040;HTU21D;51606;45.000;38.612;2023-05-10T07:29:45;16.86;75.58
65040;HTU21D;51606;45.000;38.612;2023-05-10T07:32:12;16.73;75.99
65040;HTU21D;51606;45.000;38.612;2023-05-10T07:34:38;16.41;76.63
65040;HTU21D;51606;45.000;38.612;2023-05-10T07:37:05;16.32;77.24
65040;HTU21D;51606;45.000;38.612;2023-05-10T07:39:32;16.80;76.98
65040;HTU21D;51606;45.000;38.612;2023-05-10T07:41:58;17.41;76.17
65040;HTU21D;51606;45.000;38.612;2023-05-10T07:44:25;17.66;75.56
65040;HTU21D;51606;45.000;38.612;2023-05-10T07:46:51;17.40;75.64
65040;HTU21D;51606;45.000;38.612;2023-05-10T07:49:18;16.91;76.05
65040;HTU21D;51606;45.000;38.612;2023-05-10T07:51:45;16.33;77.06
65040;HTU21D;51606;45.000;38.612;2023-05-10T07:54:14;15.83;78.05
65040;HTU21D;51606;45.000;38.612;2023-05-10T07:56:41;15.53;78.65
65040;HTU21D;51606;45.000;38.612;2023-05-10T07:59:15;15.93;78.27
65040;HTU21D;51606;45.000;38.612;2023-05-10T08:01:42;16.57;77.18
65040;HTU21D;51606;45.000;38.612;2023-05-10T08:04:09;16.96;76.41
65040;HTU21D;51606;45.000;38.612;2023-05-10T08:06:35;17.65;75.83
65040;HTU21D;51606;45.000;38.612;2023-05-10T08:09:02;18.22;74.70
65040;HTU21D;51606;45.000;38.612;2023-05-10T08:11:28;18.58;74.15
65040;HTU21D;51606;45.000;38.612;2023-05-10T08:13:55;18.87;74.02
65040;HTU21D;51606;45.000;38.612;2023-05-10T08:16:21;19.13;73.39
65040;HTU21D;51606;45.000;38.612;2023-05-10T08:18:47;19.30;73.16
65040;HTU21D;51606;45.000;38.612;2023-05-10T08:21:16;19.45;72.97
65040;HTU21D;51606;45.000;38.612;2023-05-10T08:23:43;19.75;72.38
65040;HTU21D;51606;45.000;38.612;2023-05-10T08:26:23;20.07;72.03
65040;HTU21D;51606;45.000;38.612;2023-05-10T08:28:49;20.40;71.35
65040;HTU21D;51606;45.000;38.612;2023-05-10T08:31:16;20.69;71.01
65040;HTU21D;51606;45.000;38.612;2023-05-10T08:33:45;21.08;70.21
65040;HTU21D;51606;45.000;38.612;2023-05-10T08:36:12;21.47;69.57
65040;HTU21D;51606;45.000;38.612;2023-05-10T08:38:40;21.59;68.96
65040;HTU21D;51606;45.000;38.612;2023-05-10T08:41:06;21.50;68.81
65040;HTU21D;51606;45.000;38.612;2023-05-10T08:43:34;21.54;68.53
65040;HTU21D;51606;45.000;38.612;2023-05-10T08:46:04;21.60;68.26
65040;HTU21D;51606;45.000;38.612;2023-05-10T08:48:33;21.68;68.23
65040;HTU21D;51606;45.000;38.612;2023-05-10T08:51:00;21.95;67.88
65040;HTU21D;51606;45.000;38.612;2023-05-10T08:53:29;21.97;67.49
65040;HTU21D;51606;45.000;38.612;2023-05-10T08:55:57;22.06;67.54
65040;HTU21D;51606;45.000;38.612;2023-05-10T08:58:25;22.33;67.23
65040;HTU21D;51606;45.000;38.612;2023-05-10T09:00:58;22.55;66.81
65040;HTU21D;51606;45.000;38.612;2023-05-10T09:03:25;22.55;66.85
65040;HTU21D;51606;45.000;38.612;2023-05-10T09:05:52;22.58;66.36
65040;HTU21D;51606;45.000;38.612;2023-05-10T09:08:36;22.36;66.80
65040;HTU21D;51606;45.000;38.612;2023-05-10T09:11:03;22.21;66.86
65040;HTU21D;51606;45.000;38.612;2023-05-10T09:13:30;22.08;66.72
65040;HTU21D;51606;45.000;38.612;2023-05-10T09:15:57;21.83;66.65
65040;HTU21D;51606;45.000;38.612;2023-05-10T09:18:24;21.60;67.20
65040;HTU21D;51606;45.000;38.612;2023-05-10T09:20:50;21.30;67.37
65040;HTU21D;51606;45.000;38.612;2023-05-10T09:23:17;20.93;67.88
65040;HTU21D;51606;45.000;38.612;2023-05-10T09:25:43;20.56;68.15
65040;HTU21D;51606;45.000;38.612;2023-05-10T09:28:10;20.20;68.49
65040;HTU21D;51606;45.000;38.612;2023-05-10T09:30:37;19.90;68.90
65040;HTU21D;51606;45.000;38.612;2023-05-10T09:33:04;19.63;69.09
65040;HTU21D;51606;45.000;38.612;2023-05-10T09:35:36;19.42;69.28
65040;HTU21D;51606;45.000;38.612;2023-05-10T09:38:04;19.31;69.13
65040;HTU21D;51606;45.000;38.612;2023-05-10T09:40:31;19.21;68.94
65040;HTU21D;51606;45.000;38.612;2023-05-10T09:45:30;18.99;68.94
65040;HTU21D;51606;45.000;38.612;2023-05-10T09:47:58;18.88;68.96
65040;HTU21D;51606;45.000;38.612;2023-05-10T09:50:25;18.84;68.87
65040;HTU21D;51606;45.000;38.612;2023-05-10T09:52:54;18.77;68.75
65040;HTU21D;51606;45.000;38.612;2023-05-10T09:55:22;18.81;68.72
65040;HTU21D;51606;45.000;38.612;2023-05-10T09:57:59;18.85;68.45
65040;HTU21D;51606;45.000;38.612;2023-05-10T10:00:27;18.86;68.19
65040;HTU21D;51606;45.000;38.612;2023-05-10T10:02:56;18.87;68.05
65040;HTU21D;51606;45.000;38.612;2023-05-10T10:05:33;18.86;67.92
65040;HTU21D;51606;45.000;38.612;2023-05-10T10:08:03;18.81;67.98
65040;HTU21D;51606;45.000;38.612;2023-05-10T10:10:31;18.78;67.89
65040;HTU21D;51606;45.000;38.612;2023-05-10T10:12:58;18.76;68.03
65040;HTU21D;51606;45.000;38.612;2023-05-10T10:15:26;18.82;67.96
65040;HTU21D;51606;45.000;38.612;2023-05-10T10:34:28;19.11;67.25
65040;HTU21D;51606;45.000;38.612;2023-05-10T10:36:55;19.01;66.74
65040;HTU21D;51606;45.000;38.612;2023-05-10T10:39:23;18.94;67.34
65040;HTU21D;51606;45.000;38.612;2023-05-10T10:41:54;18.87;67.49
65040;HTU21D;51606;45.000;38.612;2023-05-10T10:47:02;18.83;67.48
65040;HTU21D;51606;45.000;38.612;2023-05-10T10:52:37;18.64;67.36
65040;HTU21D;51606;45.000;38.612;2023-05-10T10:55:09;18.35;67.52
65040;HTU21D;51606;45.000;38.612;2023-05-10T11:00:21;17.73;68.39
65040;HTU21D;51606;45.000;38.612;2023-05-10T11:02:52;17.58;68.52
65040;HTU21D;51606;45.000;38.612;2023-05-10T11:05:39;17.49;68.45
65040;HTU21D;51606;45.000;38.612;2023-05-10T11:08:26;17.44;68.55
65040;HTU21D;51606;45.000;38.612;2023-05-10T11:11:02;17.38;68.26
65040;HTU21D;51606;45.000;38.612;2023-05-10T11:13:34;17.31;68.33
65040;HTU21D;51606;45.000;38.612;2023-05-10T11:18:40;17.00;68.61
65040;HTU21D;51606;45.000;38.612;2023-05-10T11:21:09;16.87;68.78
65040;HTU21D;51606;45.000;38.612;2023-05-10T11:23:50;16.77;68.72
65040;HTU21D;51606;45.000;38.612;2023-05-10T11:26:17;16.64;68.87
65040;HTU21D;51606;45.000;38.612;2023-05-10T11:28:48;16.49;68.97
65040;HTU21D;51606;45.000;38.612;2023-05-10T11:31:16;16.28;69.23
65040;HTU21D;51606;45.000;38.612;2023-05-10T11:33:50;16.11;69.47
65040;HTU21D;51606;45.000;38.612;2023-05-10T11:36:23;15.93;69.62
65040;HTU21D;51606;45.000;38.612;2023-05-10T11:38:50;15.82;69.77
65040;HTU21D;51606;45.000;38.612;2023-05-10T11:41:18;15.78;69.78
65040;HTU21D;51606;45.000;38.612;2023-05-10T11:43:50;15.76;69.67
65040;HTU21D;51606;45.000;38.612;2023-05-10T11:46:23;15.72;69.62
65040;HTU21D;51606;45.000;38.612;2023-05-10T11:48:51;15.70;69.58
65040;HTU21D;51606;45.000;38.612;2023-05-10T11:51:38;15.77;69.40
65040;HTU21D;51606;45.000;38.612;2023-05-10T11:54:13;15.93;69.16
65040;HTU21D;51606;45.000;38.612;2023-05-10T11:56:40;16.17;68.78
65040;HTU21D;51606;45.000;38.612;2023-05-10T11:59:07;16.39;68.44
65040;HTU21D;51606;45.000;38.612;2023-05-10T12:01:34;16.55;68.14
65040;HTU21D;51606;45.000;38.612;2023-05-10T12:04:01;16.63;68.03
65040;HTU21D;51606;45.000;38.612;2023-05-10T12:06:29;16.73;68.00
65040;HTU21D;51606;45.000;38.612;2023-05-10T12:08:57;16.85;67.87
65040;HTU21D;51606;45.000;38.612;2023-05-10T12:11:28;17.01;67.74
65040;HTU21D;51606;45.000;38.612;2023-05-10T12:13:55;17.16;67.59
65040;HTU21D;51606;45.000;38.612;2023-05-10T12:16:24;17.24;67.31
65040;HTU21D;51606;45.000;38.612;2023-05-10T12:19:00;17.35;67.31
65040;HTU21D;51606;45.000;38.612;2023-05-10T12:21:38;17.46;67.09
65040;HTU21D;51606;45.000;38.612;2023-05-10T12:24:07;17.51;67.01
65040;HTU21D;51606;45.000;38.612;2023-05-10T12:26:35;17.60;66.81
65040;HTU21D;51606;45.000;38.612;2023-05-10T12:29:17;17.70;66.72
65040;HTU21D;51606;45.000;38.612;2023-05-10T12:31:51;17.75;66.70
65040;HTU21D;51606;45.000;38.612;2023-05-10T12:36:54;17.44;66.85
65040;HTU21D;51606;45.000;38.612;2023-05-10T12:39:44;17.26;67.26
65040;HTU21D;51606;45.000;38.612;2023-05-10T12:42:12;17.14;67.49
65040;HTU21D;51606;45.000;38.612;2023-05-10T12:44:39;17.05;67.65
65040;HTU21D;51606;45.000;38.612;2023-05-10T12:47:05;17.01;67.78
65040;HTU21D;51606;45.000;38.612;2023-05-10T12:49:32;16.96;67.72
65040;HTU21D;51606;45.000;38.612;2023-05-10T12:51:58;16.95;67.68
65040;HTU21D;51606;45.000;38.612;2023-05-10T12:54:25;16.91;67.66
65040;HTU21D;51606;45.000;38.612;2023-05-10T12:56:51;16.89;67.67
65040;HTU21D;51606;45.000;38.612;2023-05-10T12:59:18;16.89;67.56
65040;HTU21D;51606;45.000;38.612;2023-05-10T13:01:47;16.90;67.41
65040;HTU21D;51606;45.000;38.612;2023-05-10T13:04:16;16.91;67.46
65040;HTU21D;51606;45.000;38.612;2023-05-10T13:06:46;16.92;67.49
65040;HTU21D;51606;45.000;38.612;2023-05-10T13:09:12;16.92;67.51
65040;HTU21D;51606;45.000;38.612;2023-05-10T13:11:39;16.91;67.47
65040;HTU21D;51606;45.000;38.612;2023-05-10T13:14:05;16.86;67.50
65040;HTU21D;51606;45.000;38.612;2023-05-10T13:16:32;16.79;67.53
65040;HTU21D;51606;45.000;38.612;2023-05-10T13:19:01;16.72;67.65
65040;HTU21D;51606;45.000;38.612;2023-05-10T13:21:29;16.70;67.46
65040;HTU21D;51606;45.000;38.612;2023-05-10T13:23:55;16.69;67.49
65040;HTU21D;51606;45.000;38.612;2023-05-10T13:26:23;16.74;67.31
65040;HTU21D;51606;45.000;38.612;2023-05-10T13:28:51;16.79;67.22
65040;HTU21D;51606;45.000;38.612;2023-05-10T13:31:17;16.85;67.20
65040;HTU21D;51606;45.000;38.612;2023-05-10T13:33:44;16.89;67.10
65040;HTU21D;51606;45.000;38.612;2023-05-10T13:36:12;16.95;66.88
65040;HTU21D;51606;45.000;38.612;2023-05-10T13:38:38;17.03;66.75
65040;HTU21D;51606;45.000;38.612;2023-05-10T13:41:05;17.17;66.56
65040;HTU21D;51606;45.000;38.612;2023-05-10T13:43:31;17.34;66.33
65040;HTU21D;51606;45.000;38.612;2023-05-10T13:45:58;17.49;65.99
65040;HTU21D;51606;45.000;38.612;2023-05-10T13:48:24;17.52;65.91
65040;HTU21D;51606;45.000;38.612;2023-05-10T13:50:51;17.43;66.05
65040;HTU21D;51606;45.000;38.612;2023-05-10T13:53:17;17.34;66.36
65040;HTU21D;51606;45.000;38.612;2023-05-10T13:55:49;17.35;66.30
65040;HTU21D;51606;45.000;38.612;2023-05-10T13:58:15;17.38;66.22
65040;HTU21D;51606;45.000;38.612;2023-05-10T14:00:41;17.32;66.20
65040;HTU21D;51606;45.000;38.612;2023-05-10T14:03:08;17.23;66.22
65040;HTU21D;51606;45.000;38.612;2023-05-10T14:05:36;17.05;66.53
65040;HTU21D;51606;45.000;38.612;2023-05-10T14:08:03;16.87;66.91
65040;HTU21D;51606;45.000;38.612;2023-05-10T14:10:30;16.81;66.94
65040;HTU21D;51606;45.000;38.612;2023-05-10T14:12:56;16.77;66.72
65040;HTU21D;51606;45.000;38.612;2023-05-10T14:15:23;16.73;66.72
65040;HTU21D;51606;45.000;38.612;2023-05-10T14:17:49;16.74;66.61
65040;HTU21D;51606;45.000;38.612;2023-05-10T14:20:16;16.67;66.47
65040;HTU21D;51606;45.000;38.612;2023-05-10T14:22:42;16.61;66.64
65040;HTU21D;51606;45.000;38.612;2023-05-10T14:25:09;16.48;66.77
65040;HTU21D;51606;45.000;38.612;2023-05-10T14:27:35;16.34;66.93
65040;HTU21D;51606;45.000;38.612;2023-05-10T14:30:02;16.17;67.12
65040;HTU21D;51606;45.000;38.612;2023-05-10T14:32:29;15.87;67.49
65040;HTU21D;51606;45.000;38.612;2023-05-10T14:34:58;15.61;67.93
65040;HTU21D;51606;45.000;38.612;2023-05-10T14:37:24;15.38;68.24
65040;HTU21D;51606;45.000;38.612;2023-05-10T14:39:50;15.15;68.52
65040;HTU21D;51606;45.000;38.612;2023-05-10T14:42:18;15.00;68.64
65040;HTU21D;51606;45.000;38.612;2023-05-10T14:44:45;14.88;68.72
65040;HTU21D;51606;45.000;38.612;2023-05-10T14:47:11;14.81;68.68
65040;HTU21D;51606;45.000;38.612;2023-05-10T14:49:37;14.67;68.71
65040;HTU21D;51606;45.000;38.612;2023-05-10T14:52:04;14.45;68.91
65040;HTU21D;51606;45.000;38.612;2023-05-10T14:54:31;14.25;69.13
65040;HTU21D;51606;45.000;38.612;2023-05-10T14:56:59;14.06;69.35
65040;HTU21D;51606;45.000;38.612;2023-05-10T14:59:26;13.89;69.52
65040;HTU21D;51606;45.000;38.612;2023-05-10T15:01:53;13.78;69.61
65040;HTU21D;51606;45.000;38.612;2023-05-10T15:04:23;13.70;69.62
65040;HTU21D;51606;45.000;38.612;2023-05-10T15:06:50;13.66;69.58
65040;HTU21D;51606;45.000;38.612;2023-05-10T15:09:16;13.64;69.52
65040;HTU21D;51606;45.000;38.612;2023-05-10T15:11:43;13.64;69.42
65040;HTU21D;51606;45.000;38.612;2023-05-10T15:14:10;13.64;69.37
65040;HTU21D;51606;45.000;38.612;2023-05-10T15:16:37;13.64;69.28
65040;HTU21D;51606;45.000;38.612;2023-05-10T15:19:03;13.66;69.20
65040;HTU21D;51606;45.000;38.612;2023-05-10T15:21:29;13.64;69.16
65040;HTU21D;51606;45.000;38.612;2023-05-10T15:24:08;13.58;69.20
65040;HTU21D;51606;45.000;38.612;2023-05-10T15:26:34;13.52;69.28
65040;HTU21D;51606;45.000;38.612;2023-05-10T15:29:01;13.46;69.34
65040;HTU21D;51606;45.000;38.612;2023-05-10T15:31:28;13.37;69.44
65040;HTU21D;51606;45.000;38.612;2023-05-10T15:33:58;13.31;69.52
65040;HTU21D;51606;45.000;38.612;2023-05-10T15:36:25;13.21;69.61
65040;HTU21D;51606;45.000;38.612;2023-05-10T15:38:52;13.12;69.70
65040;HTU21D;51606;45.000;38.612;2023-05-10T15:41:19;13.03;69.82
65040;HTU21D;51606;45.000;38.612;2023-05-10T15:43:46;12.96;69.94
65040;HTU21D;51606;45.000;38.612;2023-05-10T15:46:13;12.91;69.97
65040;HTU21D;51606;45.000;38.612;2023-05-10T15:48:39;12.90;69.95
65040;HTU21D;51606;45.000;38.612;2023-05-10T15:51:05;12.88;69.94
65040;HTU21D;51606;45.000;38.612;2023-05-10T15:53:32;12.85;69.96
65040;HTU21D;51606;45.000;38.612;2023-05-10T15:55:58;12.82;69.92
65040;HTU21D;51606;45.000;38.612;2023-05-10T15:58:24;12.78;69.90
65040;HTU21D;51606;45.000;38.612;2023-05-10T16:00:51;12.72;69.92
65040;HTU21D;51606;45.000;38.612;2023-05-10T16:03:17;12.62;70.02
65040;HTU21D;51606;45.000;38.612;2023-05-10T16:05:43;12.47;70.19
65040;HTU21D;51606;45.000;38.612;2023-05-10T16:08:10;12.30;70.42
65040;HTU21D;51606;45.000;38.612;2023-05-10T16:10:37;12.14;70.67
65040;HTU21D;51606;45.000;38.612;2023-05-10T16:13:03;11.99;70.89
65040;HTU21D;51606;45.000;38.612;2023-05-10T16:15:30;11.81;71.11
65040;HTU21D;51606;45.000;38.612;2023-05-10T16:17:56;11.66;71.31
65040;HTU21D;51606;45.000;38.612;2023-05-10T16:20:23;11.49;71.48
65040;HTU21D;51606;45.000;38.612;2023-05-10T16:22:49;11.34;71.62
65040;HTU21D;51606;45.000;38.612;2023-05-10T16:25:22;11.19;71.77
65040;HTU21D;51606;45.000;38.612;2023-05-10T16:39:10;10.33;72.47
65040;HTU21D;51606;45.000;38.612;2023-05-10T16:41:37;10.19;72.61
65040;HTU21D;51606;45.000;38.612;2023-05-10T16:44:03;10.06;72.70
65040;HTU21D;51606;45.000;38.612;2023-05-10T16:46:30;9.94;72.80
65040;HTU21D;51606;45.000;38.612;2023-05-10T16:48:56;9.83;72.84
65040;HTU21D;51606;45.000;38.612;2023-05-10T16:51:55;9.71;72.87
65040;HTU21D;51606;45.000;38.612;2023-05-10T16:54:22;9.62;72.93
65040;HTU21D;51606;45.000;38.612;2023-05-10T16:56:48;9.52;72.97
65040;HTU21D;51606;45.000;38.612;2023-05-10T16:59:14;9.39;73.06
65040;HTU21D;51606;45.000;38.612;2023-05-10T17:01:41;9.26;73.18
65040;HTU21D;51606;45.000;38.612;2023-05-10T17:04:07;9.12;73.31
65040;HTU21D;51606;45.000;38.612;2023-05-10T17:06:35;9.01;73.44
65040;HTU21D;51606;45.000;38.612;2023-05-10T17:09:02;8.88;73.57
65040;HTU21D;51606;45.000;38.612;2023-05-10T17:11:29;8.74;73.71
65040;HTU21D;51606;45.000;38.612;2023-05-10T17:13:55;8.61;73.86
65040;HTU21D;51606;45.000;38.612;2023-05-10T17:16:22;8.49;73.96
65040;HTU21D;51606;45.000;38.612;2023-05-10T17:18:48;8.39;74.03
65040;HTU21D;51606;45.000;38.612;2023-05-10T17:21:15;8.29;74.12
65040;HTU21D;51606;45.000;38.612;2023-05-10T17:23:41;8.19;74.21
65040;HTU21D;51606;45.000;38.612;2023-05-10T17:26:08;8.06;74.33
65040;HTU21D;51606;45.000;38.612;2023-05-10T17:28:34;7.96;74.43
65040;HTU21D;51606;45.000;38.612;2023-05-10T17:31:01;7.86;74.51
65040;HTU21D;51606;45.000;38.612;2023-05-10T17:33:27;7.77;74.59
65040;HTU21D;51606;45.000;38.612;2023-05-10T17:35:54;7.70;74.63
65040;HTU21D;51606;45.000;38.612;2023-05-10T17:38:21;7.65;74.60
65040;HTU21D;51606;45.000;38.612;2023-05-10T17:40:48;7.60;74.61
65040;HTU21D;51606;45.000;38.612;2023-05-10T17:43:14;7.55;74.58
65040;HTU21D;51606;45.000;38.612;2023-05-10T17:45:41;7.50;74.59
65040;HTU21D;51606;45.000;38.612;2023-05-10T17:48:07;7.46;74.57
65040;HTU21D;51606;45.000;38.612;2023-05-10T17:50:36;7.46;74.54
65040;HTU21D;51606;45.000;38.612;2023-05-10T17:53:02;7.44;74.47
65040;HTU21D;51606;45.000;38.612;2023-05-10T17:55:29;7.44;74.39
65040;HTU21D;51606;45.000;38.612;2023-05-10T17:57:55;7.41;74.38
65040;HTU21D;51606;45.000;38.612;2023-05-10T18:00:42;7.35;74.41
65040;HTU21D;51606;45.000;38.612;2023-05-10T18:03:10;7.30;74.43
65040;HTU21D;51606;45.000;38.612;2023-05-10T18:05:39;7.27;74.47
65040;HTU21D;51606;45.000;38.612;2023-05-10T18:08:06;7.20;74.54
65040;HTU21D;51606;45.000;38.612;2023-05-10T18:10:36;7.13;74.61
65040;HTU21D;51606;45.000;38.612;2023-05-10T18:13:03;7.05;74.74
65040;HTU21D;51606;45.000;38.612;2023-05-10T18:15:31;7.01;74.80
65040;HTU21D;51606;45.000;38.612;2023-05-10T18:18:01;6.99;74.80
65040;HTU21D;51606;45.000;38.612;2023-05-10T18:20:28;6.96;74.77
65040;HTU21D;51606;45.000;38.612;2023-05-10T18:22:55;6.91;74.79
65040;HTU21D;51606;45.000;38.612;2023-05-10T18:25:25;6.84;74.89
65040;HTU21D;51606;45.000;38.612;2023-05-10T18:27:51;6.76;74.97
65040;HTU21D;51606;45.000;38.612;2023-05-10T18:30:18;6.71;75.06
65040;HTU21D;51606;45.000;38.612;2023-05-10T18:32:45;6.65;75.16
65040;HTU21D;51606;45.000;38.612;2023-05-10T18:35:11;6.56;75.23
65040;HTU21D;51606;45.000;38.612;2023-05-10T18:37:38;6.51;75.31
65040;HTU21D;51606;45.000;38.612;2023-05-10T18:40:05;6.45;75.38
65040;HTU21D;51606;45.000;38.612;2023-05-10T18:42:36;6.41;75.40
65040;HTU21D;51606;45.000;38.612;2023-05-10T18:45:02;6.41;75.33
65040;HTU21D;51606;45.000;38.612;2023-05-10T18:47:29;6.41;75.27
65040;HTU21D;51606;45.000;38.612;2023-05-10T18:49:55;6.41;75.22
65040;HTU21D;51606;45.000;38.612;2023-05-10T18:52:22;6.40;75.17
65040;HTU21D;51606;45.000;38.612;2023-05-10T18:54:49;6.40;75.15
65040;HTU21D;51606;45.000;38.612;2023-05-10T18:57:15;6.38;75.15
65040;HTU21D;51606;45.000;38.612;2023-05-10T18:59:43;6.36;75.15
65040;HTU21D;51606;45.000;38.612;2023-05-10T19:02:09;6.30;75.25
65040;HTU21D;51606;45.000;38.612;2023-05-10T19:04:36;6.26;75.33
65040;HTU21D;51606;45.000;38.612;2023-05-10T19:07:02;6.23;75.35
65040;HTU21D;51606;45.000;38.612;2023-05-10T19:09:29;6.20;75.38
65040;HTU21D;51606;45.000;38.612;2023-05-10T19:11:55;6.16;75.39
65040;HTU21D;51606;45.000;38.612;2023-05-10T19:14:24;6.15;75.41
65040;HTU21D;51606;45.000;38.612;2023-05-10T19:16:51;6.13;75.41
65040;HTU21D;51606;45.000;38.612;2023-05-10T19:19:17;6.11;75.39
65040;HTU21D;51606;45.000;38.612;2023-05-10T19:21:44;6.10;75.39
65040;HTU21D;51606;45.000;38.612;2023-05-10T19:24:10;6.11;75.38
65040;HTU21D;51606;45.000;38.612;2023-05-10T19:26:39;6.10;75.35
65040;HTU21D;51606;45.000;38.612;2023-05-10T19:29:05;6.10;75.35
65040;HTU21D;51606;45.000;38.612;2023-05-10T19:31:32;6.08;75.34
65040;HTU21D;51606;45.000;38.612;2023-05-10T19:33:59;6.08;75.33
65040;HTU21D;51606;45.000;38.612;2023-05-10T19:36:25;6.06;75.35
65040;HTU21D;51606;45.000;38.612;2023-05-10T19:38:52;6.05;75.38
65040;HTU21D;51606;45.000;38.612;2023-05-10T19:41:18;6.01;75.41
65040;HTU21D;51606;45.000;38.612;2023-05-10T19:43:44;5.99;75.43
65040;HTU21D;51606;45.000;38.612;2023-05-10T19:46:11;5.98;75.45
65040;HTU21D;51606;45.000;38.612;2023-05-10T19:48:37;5.96;75.48
65040;HTU21D;51606;45.000;38.612;2023-05-10T19:51:04;5.93;75.51
65040;HTU21D;51606;45.000;38.612;2023-05-10T19:53:31;5.90;75.57
65040;HTU21D;51606;45.000;38.612;2023-05-10T19:56:04;5.82;75.66
65040;HTU21D;51606;45.000;38.612;2023-05-10T19:58:35;5.77;75.79
65040;HTU21D;51606;45.000;38.612;2023-05-10T20:01:01;5.69;75.91
65040;HTU21D;51606;45.000;38.612;2023-05-10T20:03:28;5.62;76.02
65040;HTU21D;51606;45.000;38.612;2023-05-10T20:05:55;5.59;76.12
65040;HTU21D;51606;45.000;38.612;2023-05-10T20:08:21;5.53;76.15
65040;HTU21D;51606;45.000;38.612;2023-05-10T20:10:47;5.50;76.21